x

8452951 - Potter Cove, Prudence Island, Ri (ptcr1) Weather Station

5:54 - Sat 3rd Dec 2016 All times are EST. -5 hours from GMT.

  • Wind
    9mph, 18mph gusts
  • Air Temp 40°f
  • Sea Pressure 1010.5mb
  • 8452951 - Potter Cove, Prudence Island, Ri
  • 8452951 - Potter Cove, Prudence Island, Ri

More Historic Weather Station data

Upgrade to MSW Pro to gain access to the past 30 days of data for over 8000 Wavebouys and Weather Stations around the globe.

Join Pro

Comparision Forecast

View Surf forecast
   
sam. 12/03 5:54 9 18 mph 1010.5mb 40f
5:48 10 21 mph 1010.4mb 40f
5:42 9 17 mph 1010.3mb 40f
5:36 8 16 mph 1010.2mb 40f
5:30 9 15 mph 1010.2mb 40f
5:24 11 25 mph 1010.2mb 40f
5:18 10 17 mph 1010.1mb 40f
5:12 10 17 mph 1010.1mb 40f
5:06 11 20 mph 1010.1mb 40f
5:00 10 18 mph 1010mb 40f
4:54 9 16 mph 1010mb 40f
4:48 8 15 mph 1010mb 40f
4:42 7 16 mph 1010mb 40f
4:36 9 16 mph 1010mb 40f
4:30 10 20 mph 1010mb 40f
4:24 9 18 mph 1009.9mb 40f
4:18 11 18 mph 1009.8mb 40f
4:12 10 21 mph 1009.8mb 40f
4:06 10 17 mph 1009.7mb 40f
4:00 9 17 mph 1009.7mb 40f
3:54 8 16 mph 1009.6mb 40f
3:48 10 16 mph 1009.6mb 41f
3:42 10 22 mph 1009.6mb 41f
3:36 8 17 mph 1009.7mb 41f
3:30 8 17 mph 1009.6mb 41f
3:24 11 18 mph 1009.6mb 41f
3:18 9 16 mph 1009.6mb 41f
3:12 10 20 mph 1009.6mb 41f
3:06 11 23 mph 1009.6mb 41f
3:00 14 23 mph 1009.3mb 41f
2:54 10 20 mph 1009.3mb 42f
2:48 13 21 mph 1009.3mb 42f
2:42 13 23 mph 1009.3mb 42f
2:36 8 17 mph 1009.2mb 42f
2:30 10 18 mph 1009.2mb 42f
2:24 13 17 mph 1009.2mb 42f
2:18 11 17 mph 1009.3mb 42f
2:12 10 18 mph 1009.3mb 42f
2:06 10 16 mph 1009.3mb 42f
2:00 10 16 mph 1009.3mb 42f
1:54 9 15 mph 1009.2mb 42f
1:48 10 17 mph 1009.2mb 42f
1:42 9 16 mph 1009.2mb 42f
1:36 11 17 mph 1009.2mb 42f
1:30 10 20 mph 1009.2mb 42f
1:24 11 17 mph 1009mb 42f
1:18 13 22 mph 1009mb 42f
1:12 10 18 mph 1009mb 42f
1:06 13 21 mph 1008.9mb 42f
1:00 11 22 mph 1008.8mb 42f
12:54 13 22 mph 1008.7mb 42f
12:48 13 23 mph 1008.6mb 42f
12:42 13 21 mph 1008.4mb 42f
12:36 14 22 mph 1008.4mb 42f
12:30 13 21 mph 1008.4mb 42f
12:24 10 23 mph 1008.3mb 42f
12:18 11 21 mph 1008.3mb 42f
12:12 10 21 mph 1008.3mb 42f
12:06 13 22 mph 1008.3mb 42f
12:00 13 21 mph 1008.4mb 42f
ven. 12/02 11:54 14 24 mph 1008.4mb 42f
11:48 13 23 mph 1008.5mb 42f
11:42 9 16 mph 1008.6mb 42f
11:36 8 13 mph 1008.7mb 41f
11:30 9 15 mph 1008.8mb 41f
11:24 7 13 mph 1009mb 41f
11:18 9 15 mph 1009.1mb 42f
11:12 7 13 mph 1009.1mb 42f
11:06 9 17 mph 1009.1mb 42f
11:00 8 13 mph 1009.1mb 42f
10:54 8 11 mph 1009.2mb 42f
10:48 8 11 mph 1009.2mb 42f
10:42 7 14 mph 1009.2mb 42f
10:36 8 16 mph 1009.2mb 42f
10:30 8 15 mph 1009.3mb 42f
10:24 9 16 mph 1009.2mb 42f
10:18 7 14 mph 1009.1mb 42f
10:12 7 14 mph 1009.1mb 42f
10:06 6 10 mph 1009.1mb 42f
10:00 6 11 mph 1009mb 42f
9:54 5 10 mph 1009mb 42f
9:48 5 9 mph 1009mb 43f
9:42 7 11 mph 1008.9mb 43f
9:36 6 9 mph 1008.9mb 43f
9:30 6 8 mph 1009mb 43f
9:24 6 9 mph 1009mb 43f
9:18 7 11 mph 1009mb 43f
9:12 7 13 mph 1009mb 44f
9:06 7 10 mph 1009mb 44f
9:00 8 13 mph 1009mb 44f
8:54 6 10 mph 1009mb 44f
8:48 10 15 mph 1009mb 44f
8:42 9 15 mph 1009mb 44f
8:36 7 13 mph 1009mb 44f
8:30 7 11 mph 1009mb 44f
8:24 8 13 mph 1009mb 45f
8:18 8 14 mph 1009mb 45f
8:12 8 13 mph 1009.1mb 45f
8:06 7 11 mph 1009mb 45f
8:00 8 16 mph 1009.1mb 46f
7:54 5 7 mph 1009.2mb 45f
7:48 3 5 mph 1009.2mb 45f
7:42 3 7 mph 1009.2mb 46f
7:36 6 10 mph 1009.2mb 46f
7:30 5 7 mph 1009.3mb 46f
7:24 6 9 mph 1009.4mb 47f
7:18 6 11 mph 1009.4mb 47f
7:12 6 9 mph 1009.4mb 47f
7:06 6 11 mph 1009.4mb 47f
7:00 7 13 mph 1009.4mb 47f
6:30 7 10 mph 1009.4mb 47f
6:24 7 10 mph 1009.4mb 47f
6:18 6 8 mph 1009.4mb 47f
6:12 6 10 mph 1009.4mb 47f
6:06 5 7 mph 1009.4mb 47f
6:00 5 7 mph 1009.4mb 47f
4:18 5 9 mph 1009mb 47f
4:12 6 11 mph 1008.9mb 47f
4:06 7 13 mph 1008.9mb 47f
4:00 6 10 mph 1008.9mb 47f
3:54 7 14 mph 1008.9mb 47f
3:48 8 15 mph 1008.9mb 48f
3:42 6 9 mph 1008.9mb 48f
3:36 8 14 mph 1008.9mb 48f
3:30 6 14 mph 1008.9mb 49f
3:24 8 15 mph 1008.8mb 49f
3:18 9 14 mph 1008.8mb 49f
3:12 7 17 mph 1008.8mb 49f
3:06 8 16 mph 1008.8mb 49f
3:00 8 16 mph 1008.8mb 50f
2:54 7 10 mph 1008.7mb 50f
2:48 8 15 mph 1008.7mb 49f
2:42 9 20 mph 1008.7mb 49f
2:36 8 17 mph 1008.6mb 49f
2:30 8 16 mph 1008.6mb 50f
2:24 9 20 mph 1008.6mb 49f
2:18 10 16 mph 1008.6mb 50f
2:12 11 20 mph 1008.5mb 50f
2:06 9 20 mph 1008.4mb 50f
2:00 11 20 mph 1008.4mb 50f
1:54 9 16 mph 1008.4mb 50f
1:48 7 14 mph 1008.4mb 50f
1:42 10 21 mph 1008.4mb 50f
1:36 11 23 mph 1008.5mb 50f
1:30 10 17 mph 1008.5mb 50f
1:24 14 28 mph 1008.6mb 50f
1:18 14 25 mph 1008.6mb 50f
1:12 10 18 mph 1008.7mb 50f
1:06 13 23 mph 1008.7mb 50f
1:00 8 18 mph 1008.8mb 51f
12:54 9 18 mph 1008.8mb 50f
12:48 13 23 mph 1008.9mb 50f
12:42 10 20 mph 1008.9mb 50f
12:36 10 20 mph 1008.9mb 50f
12:30 9 16 mph 1008.9mb 50f
12:24 10 22 mph 1009mb 50f
12:18 13 22 mph 1009.1mb 49f
12:12 8 15 mph 1009.1mb 50f
12:06 11 20 mph 1009.1mb 49f
12:00 9 17 mph 1009.2mb 50f
11:54 11 24 mph 1009.2mb 50f
11:48 11 17 mph 1009.3mb 49f
11:42 11 20 mph 1009.4mb 49f
11:36 10 22 mph 1009.5mb 49f
11:30 10 18 mph 1009.5mb 49f
11:24 10 17 mph 1009.6mb 48f
11:18 13 21 mph 1009.7mb 49f
11:12 11 23 mph 1009.8mb 49f
11:06 10 17 mph 1009.9mb 49f
11:00 11 17 mph 1009.9mb 49f
10:54 9 17 mph 1010.1mb 49f
10:48 7 14 mph 1010.2mb 49f
10:42 8 17 mph 1010.2mb 50f
10:36 8 15 mph 1010.2mb 49f
10:30 8 14 mph 1010.3mb 48f
10:24 7 13 mph 1010.3mb 48f
10:18 8 14 mph 1010.4mb 47f
10:12 7 14 mph 1010.5mb 47f
10:06 6 10 mph 1010.6mb 47f
10:00 7 10 mph 1010.6mb 46f
9:54 8 11 mph 1010.6mb 46f
9:48 8 13 mph 1010.6mb 45f
9:42 9 11 mph 1010.6mb 45f
9:36 8 11 mph 1010.6mb 45f
9:30 7 11 mph 1010.6mb 45f
9:24 8 13 mph 1010.6mb 45f
9:18 7 10 mph 1010.5mb 45f
9:12 7 13 mph 1010.5mb 44f
9:06 8 14 mph 1010.5mb 44f
9:00 8 15 mph 1010.5mb 44f
8:54 8 11 mph 1010.4mb 43f
8:48 7 10 mph 1010.5mb 43f
8:42 8 13 mph 1010.4mb 43f
8:36 7 11 mph 1010.4mb 42f
8:30 9 14 mph 1010.4mb 42f
8:24 7 13 mph 1010.4mb 42f
8:18 6 11 mph 1010.5mb 41f
8:12 7 13 mph 1010.5mb 41f
8:06 8 11 mph 1010.5mb 41f
8:00 7 10 mph 1010.5mb 41f
7:54 8 11 mph 1010.4mb 40f
7:48 7 13 mph 1010.4mb 40f
7:42 6 9 mph 1010.4mb 40f
7:36 6 8 mph 1010.4mb 40f
7:30 5 8 mph 1010.3mb 40f
7:24 7 8 mph 1010.2mb 40f
7:18 7 10 mph 1010.1mb 40f
7:12 6 9 mph 1010.2mb 40f
7:06 5 7 mph 1010.1mb 39f
7:00 5 8 mph 1010mb 39f
6:54 5 8 mph 1010mb 40f
6:48 5 7 mph 1009.9mb 40f
6:42 6 10 mph 1009.9mb 40f
6:36 5 8 mph 1009.9mb 40f
6:30 5 7 mph 1009.8mb 40f
6:24 7 10 mph 1009.8mb 40f
6:18 7 11 mph 1009.8mb 40f
6:12 7 10 mph 1009.8mb 40f
6:06 6 10 mph 1009.8mb 40f
6:00 8 14 mph 1009.9mb 40f
5:54 7 11 mph 1009.8mb 40f
5:48 8 15 mph 1009.7mb 40f
5:42 8 11 mph 1009.6mb 40f
5:36 8 14 mph 1009.6mb 41f
5:30 9 16 mph 1009.6mb 40f
5:24 7 14 mph 1009.5mb 40f
5:18 9 15 mph 1009.5mb 40f
5:12 8 17 mph 1009.4mb 41f
5:06 9 15 mph 1009.4mb 41f
5:00 8 14 mph 1009.3mb 41f
4:54 8 13 mph 1009.3mb 41f
4:48 8 15 mph 1009.3mb 41f
4:42 7 15 mph 1009.2mb 41f
4:36 7 11 mph 1009.1mb 41f
4:30 9 16 mph 1009.1mb 41f
4:24 9 16 mph 1009.1mb 41f
4:18 10 17 mph 1009mb 41f
4:12 10 18 mph 1009mb 41f
4:06 10 17 mph 1008.9mb 41f
4:00 8 16 mph 1008.9mb 41f
3:54 9 16 mph 1008.9mb 41f
3:48 6 9 mph 1008.9mb 40f
3:42 7 14 mph 1008.8mb 40f
3:36 8 15 mph 1008.9mb 40f
3:30 8 14 mph 1008.9mb 40f
3:24 7 13 mph 1008.8mb 40f
3:18 9 15 mph 1008.7mb 40f
3:12 7 15 mph 1008.7mb 40f
3:06 7 14 mph 1008.6mb 40f
3:00 9 14 mph 1008.6mb 40f
2:54 9 13 mph 1008.6mb 40f
2:48 9 14 mph 1008.7mb 41f
2:42 10 20 mph 1008.5mb 41f
2:36 9 16 mph 1008.5mb 41f
2:30 8 15 mph 1008.6mb 41f
2:24 8 14 mph 1008.7mb 41f
2:18 10 20 mph 1008.7mb 41f
2:12 10 17 mph 1008.7mb 41f
2:06 10 15 mph 1008.6mb 41f
2:00 8 13 mph 1008.5mb 41f
1:54 9 13 mph 1008.4mb 41f
1:48 9 14 mph 1008.4mb 41f
1:42 9 14 mph 1008.3mb 41f
1:36 9 16 mph 1008.1mb 42f
1:30 8 14 mph 1008.1mb 42f
1:24 8 13 mph 1008.1mb 42f
1:18 9 15 mph 1008.1mb 42f
1:12 8 13 mph 1008mb 42f
1:06 8 13 mph 1007.9mb 42f
1:00 9 13 mph 1007.8mb 42f
12:54 7 10 mph 1007.8mb 42f
12:48 7 11 mph 1007.8mb 42f
12:42 7 11 mph 1007.8mb 42f
12:36 5 7 mph 1007.8mb 42f
12:30 6 9 mph 1007.6mb 42f
12:24 7 13 mph 1007.7mb 42f
12:18 6 11 mph 1007.7mb 42f
12:12 7 13 mph 1007.6mb 42f
12:06 7 10 mph 1007.5mb 42f
12:00 7 11 mph 1007.5mb 43f
jeu. 12/01 11:54 7 11 mph 1007.4mb 42f
11:48 6 9 mph 1007.4mb 43f
11:42 6 8 mph 1007.4mb 43f
11:36 7 13 mph 1007.4mb 43f
11:30 7 13 mph 1007.4mb 43f
11:24 7 10 mph 1007.4mb 43f
11:18 7 10 mph 1007.4mb 43f
11:12 6 9 mph 1007.4mb 43f
11:06 5 9 mph 1007.4mb 43f
11:00 6 9 mph 1007.4mb 44f
10:54 6 10 mph 1007.3mb 44f
10:48 6 9 mph 1007.3mb 44f
10:42 6 8 mph 1007.2mb 44f
10:36 6 13 mph 1007.2mb 44f
10:30 8 13 mph 1007.1mb 45f
10:24 6 10 mph 1007mb 45f
10:18 7 16 mph 1006.9mb 45f
10:12 8 16 mph 1006.8mb 45f
10:06 10 22 mph 1006.8mb 45f
10:00 8 17 mph 1006.7mb 45f
9:54 10 16 mph 1006.7mb 46f
9:48 10 18 mph 1006.7mb 46f
9:30 14 22 mph 1006.4mb 46f
9:24 11 21 mph 1006.3mb 46f
9:18 10 20 mph 1006.2mb 46f
9:12 9 16 mph 1006.2mb 47f
9:06 11 22 mph 1006.2mb 47f
9:00 10 20 mph 1006.1mb 47f
8:54 8 17 mph 1006.1mb 46f
8:48 8 15 mph 1006.1mb 46f
8:30 10 17 mph 1005.6mb 48f
8:24 7 14 mph 1005.6mb 48f
8:18 9 14 mph 1005.4mb 49f
8:12 9 17 mph 1005.4mb 49f
8:06 10 16 mph 1005.4mb 49f
8:00 9 14 mph 1005.3mb 49f
7:54 10 17 mph 1005.1mb 49f
7:48 8 15 mph 1005.1mb 49f
7:42 10 17 mph 1005mb 49f
7:36 8 14 mph 1004.9mb 49f
7:30 8 13 mph 1004.9mb 49f
7:24 7 15 mph 1004.9mb 49f
7:18 7 10 mph 1004.8mb 49f
7:12 8 11 mph 1004.7mb 49f
7:06 6 11 mph 1004.6mb 49f
7:00 7 13 mph 1004.5mb 49f
6:54 7 11 mph 1004.4mb 49f
6:48 5 9 mph 1004.4mb -
6:42 6 9 mph 1004.4mb 49f
6:36 7 13 mph 1004.3mb 50f
6:30 7 13 mph 1004.2mb 50f
6:24 7 11 mph 1004.1mb 50f
6:18 9 14 mph 1004.1mb 50f
6:12 7 11 mph 1004.1mb 50f
6:06 8 14 mph 1003.9mb 50f
6:00 9 18 mph 1003.9mb 50f
5:54 7 11 mph 1003.9mb 50f
5:48 8 14 mph 1003.8mb 50f
5:42 6 10 mph 1003.8mb 50f
5:36 8 15 mph 1003.8mb 50f
5:30 10 20 mph 1003.8mb 50f
5:24 9 15 mph 1003.7mb 50f
5:18 7 15 mph 1003.7mb 50f
5:12 9 15 mph 1003.6mb 51f
5:06 8 17 mph 1003.6mb 51f
5:00 8 15 mph 1003.4mb 51f
4:54 9 17 mph 1003.3mb 51f
4:48 8 18 mph - -
4:42 6 13 mph 1003mb 52f
4:36 3 8 mph 1002.9mb 52f
4:30 3 9 mph 1002.8mb 52f
4:24 5 9 mph 1002.6mb 52f
4:18 6 11 mph 1002.6mb 52f
4:12 5 10 mph 1002.5mb 52f
4:06 5 10 mph 1002.4mb 53f
4:00 7 15 mph 1002.4mb 53f
3:54 8 17 mph 1002.1mb 53f
3:48 9 15 mph 1002mb 53f
3:42 8 13 mph 1001.8mb 54f
3:36 8 14 mph 1001.7mb 54f
3:30 8 15 mph 1001.6mb 54f
3:24 8 15 mph 1001.5mb 55f
3:18 9 17 mph 1001.4mb 55f
3:12 8 13 mph 1001.3mb 55f
3:06 9 14 mph 1001.2mb 56f
3:00 10 17 mph 1001.2mb 56f
2:54 9 17 mph 1001.1mb 56f
2:48 11 17 mph 1001.1mb 56f
2:42 7 13 mph 1001mb 56f
2:36 8 13 mph 1000.9mb 56f
2:30 8 13 mph 1000.8mb 56f
2:24 10 17 mph 1000.7mb 56f
2:18 8 14 mph 1000.7mb 56f
2:12 9 15 mph 1000.7mb 57f
2:06 9 15 mph 1000.6mb 56f
2:00 10 18 mph 1000.6mb 56f
1:54 8 14 mph 1000.6mb 57f
1:48 8 13 mph 1000.5mb 57f
12:54 7 16 mph 1000.1mb 58f
12:48 7 15 mph 1000.1mb 58f
12:30 7 13 mph 1000.3mb 56f
12:24 8 15 mph 1000.3mb 58f
12:18 9 18 mph 1000.4mb 57f
12:12 9 14 mph 1000.4mb 57f
12:06 7 14 mph 1000.5mb 56f
12:00 8 15 mph 1000.5mb 56f
11:54 9 14 mph 1000.5mb 57f
11:48 8 14 mph 1000.5mb 56f
11:42 8 15 mph 1000.6mb 57f
11:36 9 15 mph 1000.6mb 57f
11:30 9 15 mph 1000.6mb 57f
11:24 7 13 mph 1000.5mb 57f
11:18 10 18 mph 1000.6mb 58f
11:12 8 16 mph 1000.6mb 58f
11:06 9 16 mph 1000.6mb 56f
11:00 9 15 mph 1000.7mb 57f
10:54 7 11 mph 1000.8mb 56f
10:48 11 20 mph 1000.8mb 56f
10:42 8 14 mph 1000.8mb 57f
10:36 6 11 mph 1000.9mb 57f
10:30 8 14 mph 1000.9mb 56f
10:24 7 13 mph 1001mb 56f
10:18 6 10 mph 1001mb 56f
10:12 9 18 mph 1001mb 56f
10:06 7 11 mph 1000.9mb 56f
10:00 7 15 mph 1000.8mb 56f
9:54 8 16 mph 1000.7mb 56f
9:48 7 13 mph 1000.7mb 55f
9:42 5 10 mph 1000.7mb 56f
9:36 6 9 mph 1000.5mb 55f
9:30 5 9 mph 1000.4mb 55f
9:24 7 10 mph 1000.3mb 54f
9:18 8 15 mph 1000.1mb 54f
9:12 9 16 mph 1000.1mb 54f
9:06 7 13 mph 1000mb 54f
9:00 6 13 mph 1000mb 54f
8:54 7 10 mph 1000mb 54f
8:48 7 11 mph 999.6mb 53f
8:42 7 11 mph 999.4mb 53f
8:36 6 10 mph 999.2mb 53f
8:30 6 9 mph 999.2mb 53f
8:24 6 9 mph 998.9mb 52f
8:18 6 10 mph 998.6mb 52f
8:12 5 10 mph 998.4mb 52f
8:06 5 9 mph 998.2mb 52f
8:00 6 9 mph 998.5mb 52f
7:54 5 7 mph 998.4mb 52f
7:48 3 6 mph 998.4mb 52f
7:42 1 3 mph 998mb 52f
7:36 3 6 mph 998.1mb 52f
7:30 6 10 mph 997.9mb 52f
7:24 7 13 mph 998.2mb 52f
7:18 8 14 mph 998.4mb 52f
7:12 7 13 mph 998.3mb 53f
7:06 7 11 mph 998.2mb 53f
7:00 7 11 mph 998.2mb 53f
6:54 7 11 mph 998.1mb 54f
6:48 9 17 mph 998.4mb 55f
6:42 8 14 mph 998.4mb 55f
6:36 10 16 mph 998mb 56f
6:30 16 28 mph 998.2mb 57f
6:24 9 23 mph 997.9mb 58f
6:18 10 15 mph 997.9mb 58f
6:12 11 16 mph 997.2mb 59f
6:06 13 18 mph 997mb 59f
6:00 10 16 mph 996.9mb 58f
5:54 10 18 mph 996.9mb 58f
5:48 11 17 mph 997.1mb 58f
5:42 10 15 mph 996.8mb 58f
5:36 10 15 mph 996.8mb 57f
5:30 11 18 mph 996.8mb 57f
5:24 11 16 mph 996.8mb 57f
5:18 11 17 mph 996.8mb 57f
5:12 10 17 mph 996.8mb 57f
5:06 13 20 mph 996.8mb 58f
5:00 13 20 mph 996.8mb 58f
4:54 16 25 mph 996.8mb 58f
4:48 14 21 mph 996.9mb 58f
4:42 13 22 mph 997mb 58f
4:36 14 23 mph 997mb 58f
4:30 15 24 mph 997.1mb 58f
4:24 14 22 mph 996.9mb 58f
4:18 9 16 mph 996.9mb 58f
4:12 6 14 mph 996.9mb 54f
4:06 5 7 mph 997.2mb 52f
4:00 5 8 mph 997.5mb 53f
3:54 6 8 mph 997.8mb 53f
3:48 5 10 mph 997.8mb 53f
3:42 3 6 mph 998.1mb 52f
3:36 5 7 mph 998.1mb 53f
3:30 5 7 mph 998.1mb 53f
3:24 5 8 mph 998.1mb 53f
3:18 3 5 mph 998.2mb 53f
3:12 3 6 mph 998.5mb 53f
3:06 2 3 mph 998.4mb 53f
3:00 2 5 mph 998.6mb 53f
2:54 3 6 mph 998.6mb 53f
2:48 3 6 mph 999mb 52f
2:42 6 9 mph 999.2mb 51f
2:36 2 6 mph 999.4mb 50f
2:30 3 6 mph 999.8mb 50f
2:24 6 8 mph 1000.2mb 50f
2:18 7 8 mph 1000.5mb 50f
2:12 5 7 mph 1001mb 50f
2:06 5 7 mph 1001.2mb 50f
2:00 5 8 mph 1001.5mb 49f
1:54 5 7 mph 1001.7mb 49f
1:48 5 7 mph 1001.9mb 50f
1:42 3 5 mph 1002.5mb 50f
1:36 3 6 mph 1002.5mb 50f
1:30 5 15 mph 1002.3mb 50f
1:24 8 11 mph 1002.4mb 49f
1:18 6 11 mph 1002.7mb 49f
1:12 10 14 mph 1002.7mb 49f
1:06 2 8 mph 1003.2mb 49f
1:00 8 11 mph 1003.2mb 49f
12:54 10 14 mph 1003.3mb 49f
12:48 8 14 mph 1003.6mb -
12:42 10 13 mph 1003.7mb -
12:36 9 11 mph 1003.7mb -
12:30 9 13 mph 1004.2mb 49f
12:24 8 11 mph 1004.7mb 49f
12:18 7 10 mph 1004.8mb 49f
12:12 10 17 mph 1004.8mb 49f
12:06 9 14 mph 1004.9mb 49f
12:00 7 10 mph 1005.2mb 49f
mer. 11/30 11:54 8 11 mph 1005.4mb 49f
11:48 9 11 mph 1005.7mb 49f
11:42 8 14 mph 1006.2mb 49f
11:36 9 13 mph 1006.2mb 49f
11:30 9 13 mph 1006.5mb 49f
11:24 10 13 mph 1006.5mb 49f
11:18 9 11 mph 1006.9mb 49f
11:12 9 14 mph 1007.2mb 49f
11:06 7 10 mph 1007.6mb 49f
11:00 10 14 mph 1007.6mb 49f
10:54 10 14 mph 1007.7mb 49f
10:48 11 16 mph 1007.8mb 49f
10:42 13 16 mph 1007.9mb 49f
10:36 10 16 mph 1008.3mb 49f
10:30 11 14 mph 1008.3mb 49f
10:24 11 17 mph 1008.7mb 48f
10:18 11 16 mph 1008.8mb 48f
10:12 11 15 mph 1009.1mb 48f
10:06 10 14 mph 1009.6mb 48f
10:00 10 15 mph 1009.7mb 49f
9:54 11 15 mph 1009.9mb 49f
9:48 11 17 mph 1009.9mb 49f
9:42 10 15 mph 1010mb 48f
9:36 10 14 mph 1010.2mb 48f
9:30 11 15 mph 1010.2mb 48f
9:24 13 17 mph 1010.7mb 49f
9:18 14 18 mph 1010.9mb 49f
9:12 14 21 mph 1011.1mb 49f
9:06 11 17 mph 1011.1mb 49f
9:00 14 18 mph 1011.1mb 49f
8:54 13 17 mph 1011.2mb 49f
8:48 13 18 mph 1011.4mb 49f
8:42 11 15 mph 1011.9mb 49f
8:36 10 15 mph 1012mb 49f
8:30 13 17 mph 1011.6mb 49f
8:24 11 15 mph 1011.5mb 49f
8:18 11 17 mph 1011.9mb 49f
8:12 11 15 mph 1012mb 49f
8:06 10 13 mph 1012.1mb 49f
8:00 11 15 mph 1012mb 49f
7:54 11 15 mph 1012.1mb 49f
7:48 8 13 mph 1012.4mb 49f
7:42 8 13 mph 1012.4mb 49f
7:36 11 16 mph 1012.2mb 49f
7:30 13 20 mph 1012.2mb 49f
7:24 11 15 mph 1012.3mb 49f
7:18 9 15 mph 1012.6mb 48f
7:12 10 15 mph 1012.6mb 48f
7:06 13 18 mph 1012.6mb 48f
7:00 11 16 mph 1012.6mb 48f
6:54 8 13 mph 1012.7mb 48f
6:48 7 16 mph 1012.5mb 48f
6:42 7 13 mph 1012.5mb 48f
6:36 8 13 mph 1012.7mb 48f
6:00 11 15 mph 1013.4mb 48f
5:54 10 14 mph 1013.5mb 48f
5:48 11 16 mph 1013.3mb 48f
5:42 10 15 mph 1013.3mb 48f
5:36 10 14 mph 1013.7mb 48f
5:30 13 16 mph 1013.6mb 48f
5:24 10 14 mph 1013.7mb 48f
5:18 11 15 mph 1013.7mb 48f
5:12 11 17 mph 1013.9mb 48f
5:06 13 16 mph 1013.7mb 48f
5:00 13 16 mph 1014.1mb 48f
4:54 11 17 mph 1014.1mb 49f
4:48 10 14 mph 1014.1mb 49f
4:42 10 13 mph 1014.4mb 49f
4:36 7 10 mph 1014.4mb 49f
4:30 7 8 mph 1014.9mb 49f
4:24 8 10 mph 1014.4mb 49f
4:18 8 10 mph 1014.4mb 49f
4:12 8 10 mph 1014.4mb 49f
4:06 8 10 mph 1014.4mb 49f
4:00 7 9 mph 1014.7mb 49f
3:54 7 10 mph 1014.6mb 49f
3:48 7 11 mph 1014.4mb 49f
3:42 7 10 mph 1014.3mb 49f
3:36 6 9 mph 1014.3mb 49f
3:30 8 11 mph 1014.2mb 49f
3:24 9 11 mph 1014mb 49f
3:18 9 15 mph 1013.8mb 49f
3:12 9 14 mph 1013.9mb 49f
3:06 10 15 mph 1013.8mb 49f
3:00 13 16 mph 1013.7mb 49f
2:54 14 20 mph 1013.5mb 49f
2:48 15 22 mph 1013.2mb 50f
2:42 14 18 mph 1013.5mb 50f
2:36 13 18 mph 1013.7mb 51f
2:30 13 20 mph 1013.8mb 51f
2:24 14 18 mph 1013.8mb 51f
2:18 16 21 mph 1013.8mb 52f
2:12 16 22 mph 1013.7mb 52f
2:06 14 20 mph 1014.1mb 52f
2:00 11 14 mph 1014.3mb 52f
1:54 13 16 mph 1014.4mb 52f
1:48 7 13 mph 1014.8mb 52f
1:42 3 5 mph 1014.8mb 52f
1:36 2 3 mph 1014.8mb 53f
1:30 2 5 mph 1014.7mb 53f
1:24 2 3 mph 1014.8mb 53f
1:18 3 6 mph 1014.5mb 53f
1:12 5 6 mph 1014.3mb 53f
1:06 6 7 mph 1014mb 52f
1:00 6 7 mph 1013.8mb 52f
12:54 8
mph
1013.6mb 53f
12:48 6 7 mph 1013.8mb 52f
12:42 5 6 mph 1014.2mb 53f
12:36 3 5 mph 1014.3mb 52f
12:30 5 6 mph 1014.1mb 51f
12:24 3 5 mph 1013.9mb 52f
12:18 3
mph
1014mb 52f
12:12 5 6 mph 1013.5mb 51f
12:06 3 5 mph 1013.8mb 53f
12:00 2
mph
1014.3mb 52f
11:54 6
mph
1014.1mb 52f
11:48 5 6 mph 1014.3mb 52f
11:42 2 3 mph 1014.5mb 52f
11:36 3 5 mph 1014.6mb 53f
11:30 3 5 mph 1014.8mb 54f
11:24 3 5 mph 1014.8mb 55f
11:18 2 5 mph 1015mb 55f
11:12 2 5 mph 1015.2mb 54f
11:06 3 6 mph 1015.3mb 53f
11:00 2 5 mph 1014.8mb 51f
10:54 5 7 mph 1014.8mb 51f
10:48  -  1 mph 1015.2mb 51f
10:42 2 3 mph 1015.2mb 51f
10:36 1 2 mph 1015.5mb 50f
10:30 2
mph
1015.6mb 51f
10:24  -  1 mph 1016mb 52f
10:18  -  1 mph 1016.3mb 52f
10:12 1 2 mph 1016mb 52f
10:06 1 2 mph 1016.1mb 51f
10:00 2 3 mph 1015.9mb 51f
9:54  -  1 mph 1016mb 51f
9:48 2 3 mph 1015.7mb 50f
9:42 2
mph
1015.9mb 51f
9:36 3 5 mph 1015.8mb 50f
9:30 2 3 mph 1015.8mb 51f
9:24  -  1 mph 1015.9mb 53f
9:18 1
mph
1015.9mb 52f
9:12  -  1 mph 1015.9mb 52f
9:06  -  1 mph 1015.6mb 53f
9:00  -  2 mph 1015.7mb 53f
8:54 1 2 mph 1015.4mb 52f
8:48 1 2 mph 1015.3mb 52f
8:42  -  mph 1015.1mb 52f
8:36  -  mph 1015.4mb 52f
8:30 2 3 mph 1015.5mb 52f
8:24 2 3 mph 1015.3mb 52f
8:18 3
mph
1015.4mb 52f
8:12 2 5 mph 1015.4mb 52f
8:06 2 3 mph 1015.1mb 52f
8:00 2 5 mph 1014.8mb 52f
7:54 5 6 mph 1015.1mb 52f
7:48 5 6 mph 1015mb 52f
7:42 2 5 mph 1014.5mb 52f
7:36 3 7 mph 1014.5mb 52f
7:30 5 6 mph 1014.6mb 51f
7:24 5 7 mph 1014.7mb 52f
7:18 5 7 mph 1014.6mb 52f
7:12 3 6 mph 1014.3mb 51f
7:06 3 5 mph 1014.2mb 52f
7:00 2
mph
1014.2mb 52f
6:54  -  2 mph 1014.1mb 52f
6:48 2 3 mph 1014mb 52f
6:42  -  2 mph 1014.2mb 51f
6:36 5 6 mph 1014mb 51f
6:30 3 6 mph 1014.1mb 51f
6:24 5 7 mph 1014.1mb 52f
6:18 3 7 mph 1014.4mb 53f
6:12 5 8 mph 1014.5mb 53f
6:06 3 6 mph 1014.9mb 53f
6:00 2 5 mph 1014.8mb 52f
5:54 2 5 mph 1014.8mb 52f
5:48 5 7 mph 1014.9mb 53f
5:42 6 9 mph 1014.8mb 53f
5:36 5 8 mph 1014.8mb 53f
5:30 5 7 mph 1014.3mb 53f
5:24 5 6 mph 1014.2mb 52f
5:18 5 6 mph 1014.1mb 53f
5:12 3 6 mph 1013.9mb 53f
5:06 3 5 mph 1013.6mb 53f
5:00 3 5 mph 1013.6mb 53f
4:54 3 5 mph 1013.8mb 53f
4:48 3 6 mph 1013.7mb 52f
4:42 5 6 mph 1013.8mb 53f
4:36 5 7 mph 1013.8mb 53f
4:30 5 7 mph 1013.6mb 53f
4:24 6 8 mph 1013.6mb 53f
4:18 5 7 mph 1013.3mb 53f
4:12 6 8 mph 1013mb 53f
4:06 6 8 mph 1013.1mb 53f
4:00 6 9 mph 1013.3mb 53f
3:54 6 8 mph 1013.1mb 53f
3:48 6 8 mph 1012.9mb 54f
3:42 7 9 mph 1012.9mb 54f
3:36 7 10 mph 1013mb 54f
3:30 8 13 mph 1013mb 54f
3:24 8 11 mph 1012.9mb 54f
3:18 8 11 mph 1012.6mb 55f
3:12 8 13 mph 1012.7mb 55f
3:06 7 10 mph 1012.5mb 55f
3:00 6 9 mph 1012.4mb 55f
2:54 6 8 mph 1012.4mb 55f
2:48 6 8 mph 1012.4mb 54f
2:42 6 9 mph 1012.5mb 53f
2:36 5 7 mph 1012.5mb 53f
2:30 5 6 mph 1012.6mb 53f
2:24 5 6 mph 1012.6mb 53f
2:18 3 5 mph 1012.6mb 54f
2:12 2
mph
1012.6mb 55f
2:06 3 5 mph 1012.6mb 55f
2:00 3 6 mph 1012.5mb 55f
1:54 5
mph
1012.4mb 55f
1:48 3 5 mph 1012.2mb 55f
1:42 3 6 mph 1012mb 55f
1:36 2 6 mph 1011.9mb 55f
1:30 5 6 mph 1011.7mb 55f
1:24 6 7 mph 1011.5mb 56f
1:18 6 9 mph 1011.3mb 56f
1:12 6 8 mph 1011.2mb 57f
1:06 7 10 mph 1011.2mb 57f
1:00 7 9 mph 1011.1mb 57f
12:54 5 7 mph 1011.2mb 56f
12:48 5 8 mph 1011.2mb -
12:42 5 8 mph 1011.2mb -
12:36 6 9 mph 1011.2mb -
12:30 6 8 mph 1011.3mb 55f
12:24 6 8 mph 1011.2mb 55f
12:18 6 8 mph 1011mb 56f
12:12 6 9 mph 1010.9mb 56f
12:06 7 9 mph 1010.9mb 56f
12:00 7 10 mph 1010.9mb 58f
mar. 11/29 11:54 7 10 mph 1010.9mb 58f
11:48 8 13 mph 1010.9mb 58f
11:42 8 11 mph 1010.9mb 58f
11:36 8 14 mph 1011mb 58f
11:30 9 15 mph 1010.9mb 58f
11:24 8 13 mph 1010.9mb 58f
11:18 9 14 mph 1010.9mb 58f
11:12 8 13 mph 1010.9mb 58f
11:06 9 13 mph 1011mb 58f
11:00 7 11 mph 1010.9mb 58f
10:54 9 20 mph 1010.9mb 58f
10:48 8 11 mph - -
10:42 8 13 mph 1010.8mb 56f
10:36 9 20 mph 1010.7mb 57f
10:30 9 14 mph 1010.5mb 58f
10:24 9 15 mph 1010.4mb 58f
10:18 9 15 mph 1010.2mb 58f
10:12 9 17 mph 1010.1mb 57f
10:06 10 15 mph 1010.1mb 58f
10:00 11 20 mph 1010.2mb 57f
9:54 10 16 mph 1010.4mb 57f
9:48 8 13 mph 1010.5mb 57f
9:42 8 14 mph 1010.5mb 56f
9:36 7 13 mph 1010.4mb 55f
9:30 7 11 mph - 55f
9:24 7 11 mph - 55f
9:18  -  mph 1010.4mb 55f
9:12  -  mph 1010.5mb 55f
9:06  -  mph 1010.6mb 55f
9:00 7 11 mph 1010.7mb 56f
8:54 8 11 mph 1010.8mb 56f
8:48 6 13 mph - 56f
8:42 7 10 mph - 56f
8:36 7 9 mph - 56f
8:30 7 10 mph 1010.9mb 56f
8:24 6 8 mph 1010.9mb 56f
8:18 6 9 mph 1010.9mb -
8:12 7 11 mph 1011.3mb 56f
8:06 7 13 mph 1011.4mb 56f
8:00 11 17 mph - 57f
7:54 11 18 mph - 57f
7:48 11 17 mph - 55f
7:42 10 15 mph - 55f
7:36 10 18 mph - 55f
7:30 10 18 mph 1011.6mb 57f
7:24 9 21 mph 1011.2mb 57f
7:18  -  mph 1011.2mb 57f
7:12  -  mph 1011.3mb 57f
7:06  -  mph 1011.4mb 57f
7:00  -  mph - 57f
6:54  -  mph - 57f
6:48 11 24 mph 1011.5mb -
6:42 14 26 mph 1011.6mb -
6:36 11 33 mph 1011.7mb -
6:30 13 28 mph - 58f
6:24 14 26 mph - 58f
6:18 14 28 mph 1011.8mb 57f
6:12 10 25 mph 1012.1mb 57f
6:06 11 25 mph 1012.4mb 56f
6:00 10 23 mph - 56f
5:54 13 25 mph - 56f
5:48 13 24 mph - 56f
5:42 11 28 mph - 56f
5:36 11 25 mph - 56f
5:30 11 28 mph 1012.6mb 56f
5:24 13 24 mph 1012.8mb 56f
5:18  -  mph 1012.8mb 56f
5:12  -  mph 1012.9mb 56f
5:06  -  mph 1013.1mb 55f
5:00 10 29 mph 1013.6mb 55f
4:54 11 25 mph 1013.6mb 55f
4:48 11 29 mph 1014mb 55f
4:42 10 21 mph 1014.1mb 55f
4:36 10 25 mph 1014.3mb 55f
4:30 11 26 mph 1014.4mb 55f
4:24 10 24 mph 1014.6mb 55f
4:18 14 28 mph 1014.5mb 54f
4:12 14 33 mph 1014.5mb 55f
4:06 11 29 mph 1014.5mb 55f
4:00 13 24 mph 1014.8mb 54f
3:54 10 22 mph 1014.7mb 54f
3:48 9 22 mph 1015mb 53f
3:42 10 22 mph 1015.2mb 53f
3:36 10 21 mph 1015.5mb 53f
3:30 10 20 mph 1015.6mb 53f
3:24 10 22 mph 1015.7mb 53f
3:18 8 24 mph 1015.8mb 53f
3:12 10 20 mph 1016mb 53f
3:06 11 22 mph 1016.2mb 53f
3:00 8 17 mph 1016.4mb 53f
2:54 10 22 mph 1016.4mb 53f
2:48 8 16 mph 1016.6mb 53f
2:42 8 17 mph 1016.8mb 53f
2:36 9 18 mph 1017.1mb 53f
2:30 9 21 mph 1017.1mb 53f
2:24 8 16 mph 1017.1mb 52f
2:18 9 22 mph 1017.1mb 52f
2:12 8 16 mph 1017.1mb 52f
2:06 9 17 mph 1017.2mb 52f
2:00 8 20 mph 1017.4mb 52f
1:54 7 21 mph 1017.5mb 52f
1:48 6 13 mph 1017.6mb 52f
1:42 7 16 mph 1017.7mb 52f
1:36 7 17 mph 1017.8mb 52f
1:30 7 16 mph 1018mb 52f
1:24 7 15 mph 1018.2mb 51f
1:18 6 11 mph 1018.4mb 51f
1:12 6 14 mph 1018.4mb 51f
1:06 6 11 mph 1018.7mb 51f
1:00 6 14 mph 1018.8mb 51f
12:54 8 14 mph 1018.9mb 51f
12:48 6 14 mph 1018.9mb 51f
12:42 5 13 mph 1019.1mb 51f
12:36 6 15 mph 1019.2mb 51f
12:30 7 14 mph 1019.2mb 51f
12:24 6 11 mph 1019.2mb 51f
12:18 6 13 mph 1019.3mb 51f
12:12 7 14 mph 1019.3mb 51f
12:06 6 11 mph 1019.4mb 51f
12:00 7 14 mph 1019.5mb 51f
11:54 7 11 mph 1019.5mb 51f
11:48 7 13 mph 1019.8mb 51f
11:42 6 14 mph 1019.9mb 51f
11:36 6 13 mph 1019.9mb 51f